Date,TemperatureHighF,TemperatureAvgF,TemperatureLowF,DewpointHighF,DewpointAvgF,DewpointLowF,HumidityHigh,HumidityAvg,HumidityLow,PressureMaxIn,PressureMinIn,WindSpeedMaxMPH,WindSpeedAvgMPH,GustSpeedMaxMPH,PrecipitationSumIn
2013-5-2,70.3,68.8,60.5,68.1,67.3,58.5,97,95,90,30.12,29.83,14,4,14,0.12
2013-5-3,80.1,70.9,66.9,70.9,67.3,64.8,98,89,68,29.83,29.74,26,7,26,0.02
2013-5-4,83.0,73.3,66.8,71.7,67.9,64.4,96,84,66,29.78,29.67,24,6,24,0.02
2013-5-5,78.7,67.2,54.5,67.6,54.3,44.9,95,67,36,29.92,29.75,24,7,24,0.00
2013-5-6,72.8,63.3,55.5,58.2,53.7,48.7,95,73,47,30.01,29.88,20,5,20,0.00
2013-5-7,78.0,64.4,52.0,61.5,56.0,50.5,96,76,49,30.05,29.96,21,4,21,0.00
2013-5-8,81.8,68.3,55.9,64.7,58.7,54.3,97,75,41,30.13,30.02,19,4,19,0.00
2013-5-9,84.3,71.6,57.0,66.9,60.9,56.2,97,72,44,30.15,30.06,13,2,13,0.00
2013-5-10,89.5,73.9,59.9,72.6,65.1,58.5,96,76,45,30.14,29.99,21,3,21,0.06
2013-5-11,88.0,74.7,64.8,72.8,67.9,63.2,96,81,55,30.06,29.97,25,4,25,0.02
2013-5-12,87.4,75.0,64.7,70.6,66.0,63.3,96,76,52,30.04,29.94,21,5,21,0.00
2013-5-13,83.0,71.0,58.5,66.1,54.8,44.4,96,61,30,30.15,30.00,18,4,18,0.00
2013-5-14,83.3,67.9,49.0,55.7,48.5,44.1,87,54,27,30.23,30.12,16,3,16,0.00
2013-5-15,85.5,71.0,54.2,63.4,56.8,52.2,94,65,35,30.23,30.07,14,3,14,0.00
2013-5-16,85.8,73.9,60.4,66.1,61.8,57.9,95,69,39,30.14,30.00,16,3,16,0.00
2013-5-17,88.6,76.6,62.9,69.2,64.5,57.9,94,69,37,30.11,30.02,18,4,18,0.00
2013-5-18,91.0,78.1,66.0,72.6,68.4,63.0,97,75,41,30.12,29.98,16,3,16,0.79
2013-5-19,87.7,77.0,71.1,75.0,71.2,67.4,97,83,58,30.08,29.97,18,4,18,0.01
2013-5-20,87.6,75.9,69.6,74.0,69.7,63.4,96,82,59,30.08,29.99,18,4,18,0.15
2013-5-21,86.5,73.5,66.9,73.1,69.5,66.3,98,88,60,30.03,29.94,16,2,16,0.03
2013-5-22,85.8,74.0,66.7,74.2,70.1,66.1,98,88,60,29.99,29.89,14,2,14,0.18
2013-5-23,91.5,78.3,67.1,75.8,70.0,65.3,99,78,49,29.99,29.90,18,3,18,0.00
2013-5-24,92.8,80.5,70.1,74.3,67.8,59.2,98,69,38,30.09,29.95,18,4,18,0.00
2013-5-25,86.8,75.3,64.7,70.0,62.8,56.6,97,68,43,30.20,30.08,18,4,18,0.00
2013-5-26,86.8,72.2,56.7,63.6,58.2,54.9,95,65,38,30.22,30.12,17,3,17,0.00
2013-5-27,86.7,74.2,60.4,66.4,61.9,58.3,94,68,41,30.19,30.08,21,5,21,0.00
2013-5-28,89.0,76.2,63.9,71.5,67.2,61.4,93,75,53,30.15,30.05,22,6,22,0.00
2013-5-29,86.5,77.0,69.5,74.6,71.2,68.0,97,83,59,30.12,30.05,33,6,33,0.14
2013-5-30,85.3,77.6,71.4,74.6,71.7,69.3,97,83,63,30.12,30.03,32,7,32,0.01
2013-5-31,85.8,77.3,69.8,75.2,71.0,67.9,94,82,66,30.11,30.02,24,7,24,0.04